createdAt,value
2019-02-24T00:00:58.091Z,13.50
2019-02-24T00:03:25.567Z,14.43
2019-02-24T00:05:53.092Z,14.17
2019-02-24T00:08:20.922Z,13.43
2019-02-24T00:10:48.432Z,12.73
2019-02-24T00:13:15.915Z,13.77
2019-02-24T00:15:43.444Z,13.43
2019-02-24T00:18:10.914Z,14.27
2019-02-24T00:20:38.419Z,14.30
2019-02-24T00:23:05.905Z,13.90
2019-02-24T00:25:33.396Z,12.63
2019-02-24T00:28:06.885Z,14.10
2019-02-24T00:30:30.198Z,13.20
2019-02-24T00:32:57.715Z,12.63
2019-02-24T00:35:25.227Z,13.07
2019-02-24T00:37:52.783Z,13.20
2019-02-24T00:40:20.347Z,12.87
2019-02-24T00:42:47.813Z,13.23
2019-02-24T00:45:15.363Z,13.03
2019-02-24T00:47:42.931Z,13.27
2019-02-24T00:50:10.382Z,12.33
2019-02-24T00:52:37.872Z,12.43
2019-02-24T00:55:05.538Z,12.57
2019-02-24T00:57:33.027Z,13.77
2019-02-24T01:00:00.521Z,13.17
2019-02-24T01:02:28.295Z,12.77
2019-02-24T01:04:55.763Z,13.70
2019-02-24T01:07:23.236Z,13.73
2019-02-24T01:09:50.736Z,13.00
2019-02-24T01:12:18.258Z,14.00
2019-02-24T01:14:45.749Z,14.57
2019-02-24T01:17:13.264Z,14.37
2019-02-24T01:19:40.735Z,14.13
2019-02-24T01:22:08.240Z,14.40
2019-02-24T01:24:35.765Z,14.63
2019-02-24T01:27:03.291Z,14.27
2019-02-24T01:29:30.757Z,13.83
2019-02-24T01:31:58.261Z,13.57
2019-02-24T01:34:25.746Z,15.30
2019-02-24T01:36:53.218Z,14.70
2019-02-24T01:39:20.683Z,14.47
2019-02-24T01:41:48.207Z,14.57
2019-02-24T01:44:15.711Z,16.27
2019-02-24T01:46:43.257Z,12.83
2019-02-24T01:49:10.844Z,13.27
2019-02-24T01:51:38.687Z,13.47
2019-02-24T01:54:06.195Z,12.77
2019-02-24T01:56:34.046Z,12.77
2019-02-24T01:59:01.549Z,14.00
2019-02-24T02:01:29.009Z,12.90
2019-02-24T02:03:56.500Z,13.40
2019-02-24T02:06:23.971Z,12.17
2019-02-24T02:08:51.484Z,13.63
2019-02-24T02:11:18.944Z,13.20
2019-02-24T02:13:46.448Z,13.90
2019-02-24T02:16:13.924Z,13.87
2019-02-24T02:18:41.443Z,13.03
2019-02-24T02:21:08.911Z,13.40
2019-02-24T02:23:36.404Z,13.53
2019-02-24T02:26:04.104Z,12.90
2019-02-24T02:28:31.605Z,12.77
2019-02-24T02:30:59.119Z,14.63
2019-02-24T02:33:26.597Z,14.33
2019-02-24T02:36:13.574Z,14.30
2019-02-24T02:38:41.086Z,15.67
2019-02-24T02:41:08.607Z,14.60
2019-02-24T02:43:36.146Z,13.47
2019-02-24T02:46:03.621Z,12.93
2019-02-24T02:48:50.565Z,11.87
2019-02-24T02:51:18.076Z,13.50
2019-02-24T02:53:45.609Z,12.60
2019-02-24T02:56:13.216Z,13.30
2019-02-24T02:58:41.128Z,13.90
2019-02-24T03:01:08.626Z,15.07
2019-02-24T03:03:36.139Z,14.43
2019-02-24T03:06:41.482Z,15.13
2019-02-24T03:09:10.535Z,14.13
2019-02-24T03:11:38.067Z,14.00
2019-02-24T03:14:05.584Z,13.33
2019-02-24T03:16:33.120Z,12.90
2019-02-24T03:19:00.644Z,13.13
2019-02-24T03:21:28.116Z,12.93
2019-02-24T03:24:15.062Z,12.73
2019-02-24T03:26:42.549Z,11.87
2019-02-24T03:29:10.031Z,12.40
2019-02-24T03:31:37.538Z,12.47
2019-02-24T03:34:05.034Z,11.97
2019-02-24T03:36:32.545Z,13.00
2019-02-24T03:39:00.026Z,11.20
2019-02-24T03:41:27.559Z,12.03
2019-02-24T03:43:55.052Z,11.17
2019-02-24T03:46:22.540Z,11.20
2019-02-24T03:48:49.997Z,12.23
2019-02-24T03:51:17.497Z,12.30
2019-02-24T03:53:44.966Z,12.27
2019-02-24T03:56:12.453Z,12.50
2019-02-24T03:58:39.954Z,12.67
2019-02-24T04:01:07.797Z,11.70
2019-02-24T04:03:35.295Z,13.17
2019-02-24T04:06:02.778Z,13.00
2019-02-24T04:08:30.256Z,12.87
2019-02-24T04:10:57.755Z,12.43
2019-02-24T04:13:25.235Z,11.20
2019-02-24T04:15:52.839Z,13.03
2019-02-24T04:18:20.320Z,12.10
2019-02-24T04:20:47.846Z,12.60
2019-02-24T04:23:15.302Z,12.60
2019-02-24T04:25:42.855Z,11.63
2019-02-24T04:28:10.366Z,11.87
2019-02-24T04:30:37.856Z,12.87
2019-02-24T04:33:05.385Z,13.23
2019-02-24T04:35:32.881Z,12.33
2019-02-24T04:38:00.374Z,12.43
2019-02-24T04:40:27.839Z,12.07
2019-02-24T04:42:55.349Z,11.60
2019-02-24T04:45:22.848Z,12.10
2019-02-24T04:47:50.343Z,12.33
2019-02-24T04:50:17.810Z,12.53
2019-02-24T04:52:45.280Z,12.57
2019-02-24T04:55:12.759Z,11.63
2019-02-24T04:57:40.218Z,11.90
2019-02-24T05:00:07.769Z,11.13
2019-02-24T05:02:35.285Z,12.33
2019-02-24T05:05:02.987Z,11.93
2019-02-24T05:07:30.512Z,13.13
2019-02-24T05:09:58.034Z,12.03
2019-02-24T05:12:25.540Z,12.27
2019-02-24T05:14:53.095Z,11.77
2019-02-24T05:17:20.647Z,11.67
2019-02-24T05:19:48.124Z,13.10
2019-02-24T05:22:15.629Z,12.10
2019-02-24T05:24:43.137Z,13.23
2019-02-24T05:27:10.723Z,11.47
2019-02-24T05:29:45.141Z,11.63
2019-02-24T05:32:07.496Z,11.37
2019-02-24T05:34:35.010Z,13.10
2019-02-24T05:37:02.471Z,11.83
2019-02-24T05:39:29.947Z,12.37
2019-02-24T05:41:57.414Z,11.17
2019-02-24T05:44:24.913Z,10.83
2019-02-24T05:46:52.412Z,10.10
2019-02-24T05:49:19.918Z,10.27
2019-02-24T05:52:06.870Z,11.50
2019-02-24T05:54:34.400Z,9.30
2019-02-24T05:57:01.874Z,9.97
2019-02-24T05:59:29.352Z,10.87
2019-02-24T06:01:56.827Z,10.37
2019-02-24T06:04:24.348Z,11.27
2019-02-24T06:06:51.814Z,10.70
2019-02-24T06:09:19.292Z,10.37
2019-02-24T06:11:46.788Z,11.13
2019-02-24T06:14:14.284Z,11.10
2019-02-24T06:16:41.805Z,10.40
2019-02-24T06:19:09.259Z,10.67
2019-02-24T06:21:36.705Z,11.97
2019-02-24T06:24:04.210Z,11.03
2019-02-24T06:26:31.700Z,11.83
2019-02-24T06:28:59.205Z,11.70
2019-02-24T06:31:26.699Z,11.37
2019-02-24T06:33:54.192Z,10.87
2019-02-24T06:36:21.631Z,11.30
2019-02-24T06:38:49.111Z,11.77
2019-02-24T06:41:16.532Z,11.97
2019-02-24T06:43:44.037Z,11.97
2019-02-24T06:46:11.481Z,10.60
2019-02-24T06:48:39.001Z,10.87
2019-02-24T06:51:08.617Z,10.83
2019-02-24T06:53:36.077Z,11.57
2019-02-24T06:56:03.574Z,10.30
2019-02-24T06:58:31.013Z,10.97
2019-02-24T07:00:58.491Z,10.60
2019-02-24T07:03:25.928Z,9.80
2019-02-24T07:05:53.403Z,10.20
2019-02-24T07:08:20.837Z,10.47
2019-02-24T07:10:48.300Z,9.27
2019-02-24T07:13:15.731Z,10.50
2019-02-24T07:15:43.183Z,9.07
2019-02-24T07:18:10.630Z,8.93
2019-02-24T07:20:38.110Z,9.17
2019-02-24T07:23:25.039Z,9.30
2019-02-24T07:25:52.530Z,8.63
2019-02-24T07:28:19.962Z,8.17
2019-02-24T07:30:47.411Z,10.17
2019-02-24T07:33:14.846Z,10.20
2019-02-24T07:35:42.345Z,10.20
2019-02-24T07:38:09.780Z,9.83
2019-02-24T07:40:37.264Z,8.80
2019-02-24T07:43:04.740Z,10.07
2019-02-24T07:45:32.236Z,9.53
2019-02-24T07:47:59.685Z,9.60
2019-02-24T07:50:28.106Z,10.57
2019-02-24T07:52:55.559Z,9.43
2019-02-24T07:55:23.449Z,10.60
2019-02-24T07:57:50.927Z,10.07
2019-02-24T08:00:18.376Z,9.10
2019-02-24T08:02:45.869Z,8.43
2019-02-24T08:05:13.346Z,8.00
2019-02-24T08:07:40.807Z,7.33
2019-02-24T08:10:08.263Z,7.73
2019-02-24T08:12:35.722Z,7.23
2019-02-24T08:15:03.530Z,7.60
2019-02-24T08:17:31.441Z,7.93
2019-02-24T08:19:58.903Z,7.50
2019-02-24T08:22:26.384Z,6.83
2019-02-24T08:24:53.848Z,7.77
2019-02-24T08:27:21.373Z,7.13
2019-02-24T08:30:08.615Z,7.30
2019-02-24T08:32:36.354Z,7.00
2019-02-24T08:35:04.388Z,7.60
2019-02-24T08:37:32.168Z,6.63
2019-02-24T08:39:59.617Z,7.67
2019-02-24T08:42:27.079Z,6.73
2019-02-24T08:44:54.549Z,8.07
2019-02-24T08:47:22.015Z,7.03
2019-02-24T08:49:49.451Z,7.10
2019-02-24T08:52:16.938Z,6.87
2019-02-24T08:54:44.416Z,6.87
2019-02-24T08:57:11.875Z,7.20
2019-02-24T08:59:39.328Z,7.70
2019-02-24T09:02:06.807Z,7.23
2019-02-24T09:04:34.642Z,7.53
2019-02-24T09:07:02.072Z,7.47
2019-02-24T09:09:29.550Z,7.17
2019-02-24T09:11:56.982Z,6.97
2019-02-24T09:14:24.439Z,6.43
2019-02-24T09:16:51.875Z,6.80
2019-02-24T09:19:19.361Z,6.03
2019-02-24T09:21:46.800Z,6.03
2019-02-24T09:24:14.243Z,6.40
2019-02-24T09:26:41.695Z,5.87
2019-02-24T09:29:09.163Z,6.20
2019-02-24T09:31:36.647Z,6.10
2019-02-24T09:34:04.147Z,5.80
2019-02-24T09:36:31.617Z,6.70
2019-02-24T09:38:59.062Z,6.37
2019-02-24T09:41:26.518Z,5.63
2019-02-24T09:43:53.998Z,5.57
2019-02-24T09:46:21.458Z,5.80
2019-02-24T09:48:48.959Z,5.23
2019-02-24T09:51:16.711Z,5.47
2019-02-24T09:53:44.216Z,6.37
2019-02-24T09:56:11.641Z,5.90
2019-02-24T09:58:39.116Z,5.40
2019-02-24T10:01:10.756Z,5.57
2019-02-24T10:03:35.869Z,5.40
2019-02-24T10:06:03.329Z,5.70
2019-02-24T10:08:30.803Z,5.90
2019-02-24T10:10:58.246Z,5.40
2019-02-24T10:13:25.707Z,5.53
2019-02-24T10:15:53.155Z,5.10
2019-02-24T10:18:20.614Z,5.70
2019-02-24T10:20:48.089Z,5.87
2019-02-24T10:23:15.532Z,5.60
2019-02-24T10:25:42.988Z,5.70
2019-02-24T10:28:10.414Z,6.47
2019-02-24T10:30:38.095Z,5.22
2019-02-24T10:33:05.689Z,5.78
2019-02-24T10:35:33.149Z,5.40
2019-02-24T10:38:00.596Z,6.00
2019-02-24T10:40:28.076Z,4.70
2019-02-24T10:42:55.540Z,5.27
2019-02-24T10:45:23.030Z,5.60
2019-02-24T10:47:50.503Z,5.42
2019-02-24T10:50:17.959Z,5.53
2019-02-24T10:52:45.395Z,5.35
2019-02-24T10:55:12.867Z,4.55
2019-02-24T10:57:40.323Z,5.58
2019-02-24T11:00:10.127Z,5.17
2019-02-24T11:02:37.630Z,5.80
2019-02-24T11:05:05.954Z,5.60
2019-02-24T11:07:34.232Z,5.70
2019-02-24T11:10:03.791Z,5.62
2019-02-24T11:12:30.989Z,5.28
2019-02-24T11:14:58.476Z,5.08
2019-02-24T11:17:25.964Z,5.17
2019-02-24T11:19:53.438Z,5.30
2019-02-24T11:22:20.907Z,6.95
2019-02-24T11:24:48.342Z,4.78
2019-02-24T11:27:15.793Z,5.85
2019-02-24T11:29:43.293Z,5.15
2019-02-24T11:32:10.796Z,5.53
2019-02-24T11:34:38.301Z,5.95
2019-02-24T11:37:05.853Z,5.42
2019-02-24T11:39:33.618Z,5.25
2019-02-24T11:42:01.193Z,6.35
2019-02-24T11:44:28.714Z,5.78
2019-02-24T11:46:56.594Z,5.97
2019-02-24T11:49:24.368Z,5.47
2019-02-24T11:51:51.943Z,5.60
2019-02-24T11:54:19.419Z,5.33
2019-02-24T11:56:46.923Z,5.53
2019-02-24T11:59:14.340Z,6.37
2019-02-24T12:01:47.621Z,5.83
2019-02-24T12:04:11.044Z,5.55
2019-02-24T12:06:38.549Z,6.15
2019-02-24T12:09:05.982Z,5.42
2019-02-24T12:11:35.170Z,5.60
2019-02-24T12:14:02.596Z,5.70
2019-02-24T12:16:30.057Z,5.87
2019-02-24T12:18:57.493Z,5.85
2019-02-24T12:21:24.930Z,5.15
2019-02-24T12:23:52.383Z,5.40
2019-02-24T12:26:19.835Z,5.78
2019-02-24T12:28:47.295Z,5.87
2019-02-24T12:31:14.754Z,5.53
2019-02-24T12:33:42.713Z,5.15
2019-02-24T12:36:10.210Z,5.12
2019-02-24T12:38:37.713Z,5.87
2019-02-24T12:41:05.190Z,5.45
2019-02-24T12:43:32.694Z,4.92
2019-02-24T12:46:00.128Z,5.28
2019-02-24T12:48:27.604Z,5.90
2019-02-24T12:50:55.041Z,5.30
2019-02-24T12:53:22.700Z,5.55
2019-02-24T12:55:50.351Z,6.12
2019-02-24T12:58:18.075Z,5.75
2019-02-24T13:00:45.653Z,5.35
2019-02-24T13:03:13.241Z,4.95
2019-02-24T13:05:40.785Z,4.80
2019-02-24T13:08:08.370Z,5.25
2019-02-24T13:10:35.875Z,5.37
2019-02-24T13:13:03.435Z,4.87
2019-02-24T13:15:31.121Z,5.33
2019-02-24T13:17:58.807Z,5.35
2019-02-24T13:20:26.668Z,4.87
2019-02-24T13:22:54.255Z,4.78
2019-02-24T13:25:21.863Z,4.67
2019-02-24T13:27:49.481Z,5.53
2019-02-24T13:30:17.091Z,5.03
2019-02-24T13:32:44.646Z,4.78
2019-02-24T13:35:12.161Z,5.17
2019-02-24T13:37:39.771Z,5.00
2019-02-24T13:40:09.472Z,5.12
2019-02-24T13:42:37.024Z,4.60
2019-02-24T13:45:06.022Z,5.22
2019-02-24T13:47:33.521Z,5.40
2019-02-24T13:50:01.037Z,5.17
2019-02-24T13:52:28.691Z,4.65
2019-02-24T13:54:56.211Z,5.50
2019-02-24T13:57:23.704Z,4.97
2019-02-24T13:59:51.247Z,5.08
2019-02-24T14:02:24.131Z,5.05
2019-02-24T14:04:48.297Z,5.17
2019-02-24T14:07:15.883Z,4.90
2019-02-24T14:09:43.477Z,4.78
2019-02-24T14:12:10.997Z,4.90
2019-02-24T14:14:38.532Z,4.90
2019-02-24T14:17:06.058Z,4.53
2019-02-24T14:19:33.646Z,5.28
2019-02-24T14:22:01.260Z,4.67
2019-02-24T14:24:28.754Z,4.03
2019-02-24T14:26:56.521Z,5.22
2019-02-24T14:29:24.622Z,5.03
2019-02-24T14:31:52.471Z,4.10
2019-02-24T14:34:21.416Z,5.20
2019-02-24T14:36:49.005Z,5.00
2019-02-24T14:39:16.525Z,5.03
2019-02-24T14:41:44.147Z,5.08
2019-02-24T14:44:11.734Z,4.40
2019-02-24T14:46:39.238Z,4.80
2019-02-24T14:49:08.147Z,4.10
2019-02-24T14:51:35.718Z,4.78
2019-02-24T14:54:03.325Z,4.55
2019-02-24T14:56:30.805Z,4.95
2019-02-24T14:58:58.355Z,4.95
2019-02-24T15:01:25.868Z,4.97
2019-02-24T15:03:53.473Z,4.60
2019-02-24T15:06:21.069Z,4.42
2019-02-24T15:08:48.656Z,5.12
2019-02-24T15:11:17.320Z,4.95
2019-02-24T15:13:44.783Z,5.40
2019-02-24T15:16:12.344Z,4.40
2019-02-24T15:18:41.923Z,4.83
2019-02-24T15:21:11.082Z,4.58
2019-02-24T15:23:38.645Z,4.85
2019-02-24T15:26:07.067Z,5.40
2019-02-24T15:28:34.556Z,5.15
2019-02-24T15:31:02.093Z,4.87
2019-02-24T15:33:29.738Z,5.08
2019-02-24T15:35:57.231Z,5.25
2019-02-24T15:38:24.719Z,5.30
2019-02-24T15:40:52.223Z,4.95
2019-02-24T15:43:19.658Z,5.20
2019-02-24T15:45:47.186Z,4.80
2019-02-24T15:48:14.699Z,5.10
2019-02-24T15:50:42.209Z,4.87
2019-02-24T15:53:09.706Z,5.30
2019-02-24T15:55:37.202Z,5.40
2019-02-24T15:58:05.026Z,5.20
2019-02-24T16:00:32.510Z,5.05
2019-02-24T16:03:02.063Z,4.90
2019-02-24T16:05:29.762Z,4.75
2019-02-24T16:07:57.346Z,5.00
2019-02-24T16:10:24.890Z,4.35
2019-02-24T16:12:52.435Z,5.30
2019-02-24T16:15:20.038Z,5.10
2019-02-24T16:17:47.673Z,5.62
2019-02-24T16:20:17.597Z,5.20
2019-02-24T16:22:45.092Z,5.37
2019-02-24T16:25:12.587Z,5.70
2019-02-24T16:27:40.159Z,5.17
2019-02-24T16:30:08.807Z,5.20
2019-02-24T16:32:36.427Z,5.78
2019-02-24T16:35:06.654Z,5.12
2019-02-24T16:37:34.099Z,5.15
2019-02-24T16:40:01.579Z,5.85
2019-02-24T16:42:29.035Z,5.42
2019-02-24T16:44:56.526Z,4.85
2019-02-24T16:47:23.972Z,4.83
2019-02-24T16:49:51.428Z,5.42
2019-02-24T16:52:18.859Z,6.15
2019-02-24T16:54:52.464Z,6.47
2019-02-24T16:57:15.593Z,5.50
2019-02-24T16:59:43.071Z,5.93
2019-02-24T17:02:10.513Z,5.07
2019-02-24T17:04:37.960Z,5.07
2019-02-24T17:07:05.395Z,5.70
2019-02-24T17:09:32.872Z,5.30
2019-02-24T17:12:00.300Z,5.30
2019-02-24T17:14:27.758Z,5.50
2019-02-24T17:17:01.397Z,5.87
2019-02-24T17:19:24.459Z,6.07
2019-02-24T17:21:51.892Z,5.40
2019-02-24T17:24:19.376Z,6.70
2019-02-24T17:26:46.795Z,6.37
2019-02-24T17:29:14.276Z,6.00
2019-02-24T17:31:41.773Z,6.63
2019-02-24T17:34:09.246Z,6.40
2019-02-24T17:36:37.066Z,5.90
2019-02-24T17:39:05.696Z,6.90
2019-02-24T17:41:33.147Z,6.73
2019-02-24T17:44:00.599Z,7.37
2019-02-24T17:46:28.067Z,6.67
2019-02-24T17:48:55.548Z,8.90
2019-02-24T17:51:23.297Z,7.97
2019-02-24T17:53:50.735Z,9.93
2019-02-24T17:56:18.202Z,9.80
2019-02-24T17:58:45.663Z,11.77
2019-02-24T18:01:13.243Z,11.03
2019-02-24T18:03:40.735Z,10.03
2019-02-24T18:06:08.270Z,9.27
2019-02-24T18:08:56.093Z,8.90
2019-02-24T18:11:27.004Z,8.63
2019-02-24T18:13:54.472Z,9.43
2019-02-24T18:16:22.053Z,11.97
2019-02-24T18:18:49.886Z,11.43
2019-02-24T18:21:17.411Z,10.10
2019-02-24T18:23:45.797Z,12.17
2019-02-24T18:26:13.350Z,12.20
2019-02-24T18:28:40.820Z,12.83
2019-02-24T18:31:08.619Z,13.50
2019-02-24T18:33:48.093Z,12.80
2019-02-24T18:36:12.436Z,12.17
2019-02-24T18:38:43.002Z,11.67
2019-02-24T18:41:10.549Z,11.80
2019-02-24T18:43:38.073Z,10.67
2019-02-24T18:46:05.719Z,10.67
2019-02-24T18:48:33.315Z,10.33
2019-02-24T18:51:01.331Z,9.93
2019-02-24T18:53:28.883Z,11.00
2019-02-24T18:55:56.468Z,11.93
2019-02-24T18:58:24.167Z,13.17
2019-02-24T19:00:51.779Z,12.97
2019-02-24T19:03:19.305Z,13.20
2019-02-24T19:05:47.089Z,11.50
2019-02-24T19:08:15.333Z,20.93
2019-02-24T19:10:43.172Z,18.37
2019-02-24T19:13:10.831Z,15.53
2019-02-24T19:15:38.326Z,14.07
2019-02-24T19:18:06.193Z,14.07
2019-02-24T19:20:33.707Z,12.60
2019-02-24T19:23:02.354Z,12.70
2019-02-24T19:25:29.842Z,12.30
2019-02-24T19:27:57.393Z,12.17
2019-02-24T19:30:24.902Z,12.33
2019-02-24T19:32:52.429Z,12.50
2019-02-24T19:35:20.092Z,12.60
2019-02-24T19:37:47.670Z,14.37
2019-02-24T19:40:15.701Z,12.77
2019-02-24T19:42:43.294Z,12.90
2019-02-24T19:45:13.527Z,11.73
2019-02-24T19:47:43.556Z,10.83
2019-02-24T19:50:16.989Z,11.63
2019-02-24T19:52:44.519Z,11.93
2019-02-24T19:55:12.069Z,11.80
2019-02-24T19:57:42.029Z,13.67
2019-02-24T20:00:17.876Z,13.27
2019-02-24T20:02:45.421Z,13.03
2019-02-24T20:05:13.034Z,12.03
2019-02-24T20:07:40.560Z,11.93
2019-02-24T20:10:08.543Z,12.73
2019-02-24T20:12:36.129Z,12.43
2019-02-24T20:15:04.807Z,11.90
2019-02-24T20:17:32.403Z,11.93
2019-02-24T20:19:59.940Z,12.67
2019-02-24T20:24:55.382Z,13.30
2019-02-24T20:27:22.938Z,13.83
2019-02-24T20:29:50.868Z,13.10
2019-02-24T20:32:18.363Z,13.80
2019-02-24T20:34:45.827Z,13.30
2019-02-24T20:37:13.319Z,12.70
2019-02-24T20:39:41.146Z,12.60
2019-02-24T20:42:08.656Z,13.00
2019-02-24T20:44:36.199Z,11.83
2019-02-24T20:47:03.684Z,12.33
2019-02-24T20:49:31.224Z,14.43
2019-02-24T20:51:58.777Z,14.50
2019-02-24T20:54:26.255Z,12.10
2019-02-24T20:56:53.739Z,12.20
2019-02-24T20:59:21.356Z,10.13
2019-02-24T21:01:48.975Z,10.63
2019-02-24T21:04:17.020Z,10.03
2019-02-24T21:06:47.651Z,10.57
2019-02-24T21:09:15.257Z,11.40
2019-02-24T21:11:43.692Z,11.23
2019-02-24T21:14:11.236Z,13.60
2019-02-24T21:16:39.126Z,12.13
2019-02-24T21:19:07.078Z,12.33
2019-02-24T21:21:35.333Z,11.43
2019-02-24T21:24:02.909Z,11.87
2019-02-24T21:26:30.558Z,11.77
2019-02-24T21:28:58.001Z,11.57
2019-02-24T21:31:25.502Z,11.97
2019-02-24T21:33:53.077Z,10.90
2019-02-24T21:36:20.587Z,11.30
2019-02-24T21:38:48.056Z,11.23
2019-02-24T21:41:16.112Z,10.60
2019-02-24T21:43:43.599Z,11.37
2019-02-24T21:46:11.760Z,10.67
2019-02-24T21:48:39.321Z,10.40
2019-02-24T21:51:06.830Z,10.10
2019-02-24T21:53:34.347Z,10.07
2019-02-24T21:56:01.890Z,10.60
2019-02-24T21:58:29.647Z,9.60
2019-02-24T22:00:57.133Z,10.40
2019-02-24T22:03:25.366Z,10.60
2019-02-24T22:05:54.863Z,9.83
2019-02-24T22:08:22.382Z,10.30
2019-02-24T22:10:49.883Z,10.73
2019-02-24T22:13:17.329Z,11.10
2019-02-24T22:15:44.819Z,10.50
2019-02-24T22:18:12.491Z,10.90
2019-02-24T22:20:39.970Z,11.83
2019-02-24T22:23:07.486Z,10.63
2019-02-24T22:25:34.997Z,11.60
2019-02-24T22:28:02.511Z,11.47
2019-02-24T22:30:30.018Z,10.53
2019-02-24T22:32:57.519Z,11.10
2019-02-24T22:35:25.008Z,12.13
2019-02-24T22:37:52.556Z,11.60
2019-02-24T22:40:20.020Z,12.03
2019-02-24T22:43:06.952Z,11.30
2019-02-24T22:45:34.474Z,11.47
2019-02-24T22:48:03.144Z,11.90
2019-02-24T22:50:31.176Z,11.33
2019-02-24T22:52:58.680Z,12.03
2019-02-24T22:55:26.190Z,11.33
2019-02-24T22:57:53.722Z,12.40
2019-02-24T23:00:44.936Z,12.23
2019-02-24T23:03:12.408Z,12.03
2019-02-24T23:05:39.907Z,11.10
2019-02-24T23:08:07.414Z,10.87
2019-02-24T23:10:34.892Z,10.90
2019-02-24T23:13:02.421Z,11.47
2019-02-24T23:15:29.889Z,9.80
2019-02-24T23:17:58.035Z,9.37
2019-02-24T23:20:25.997Z,9.50
2019-02-24T23:22:53.568Z,10.47
2019-02-24T23:25:21.178Z,10.20
2019-02-24T23:27:48.694Z,10.60
2019-02-24T23:30:16.167Z,11.70
2019-02-24T23:32:43.691Z,11.03
2019-02-24T23:35:11.223Z,10.83
2019-02-24T23:37:38.687Z,11.43
2019-02-24T23:40:06.431Z,10.47
2019-02-24T23:42:33.908Z,10.77
2019-02-24T23:45:09.917Z,11.43
2019-02-24T23:47:30.673Z,10.63
2019-02-24T23:49:58.242Z,11.30
2019-02-24T23:52:25.698Z,10.60
2019-02-24T23:54:53.207Z,11.43
2019-02-24T23:57:20.717Z,11.37
2019-02-24T23:59:48.236Z,10.80
